sensor_id;sensor_type;location;lat;lon;timestamp;temperature;humidity
34153;DHT22;20426;48.372;10.888;2023-08-12T00:00:12;20.80;99.90
34153;DHT22;20426;48.372;10.888;2023-08-12T00:00:43;20.90;99.90
34153;DHT22;20426;48.372;10.888;2023-08-12T00:01:14;20.80;99.90
34153;DHT22;20426;48.372;10.888;2023-08-12T00:01:45;20.90;99.90
34153;DHT22;20426;48.372;10.888;2023-08-12T00:02:15;20.80;99.90
34153;DHT22;20426;48.372;10.888;2023-08-12T00:02:46;20.80;99.90
34153;DHT22;20426;48.372;10.888;2023-08-12T00:03:17;20.80;99.90
34153;DHT22;20426;48.372;10.888;2023-08-12T00:03:48;20.80;99.90
34153;DHT22;20426;48.372;10.888;2023-08-12T00:04:19;20.80;99.90
34153;DHT22;20426;48.372;10.888;2023-08-12T00:04:49;20.80;99.90
34153;DHT22;20426;48.372;10.888;2023-08-12T00:05:20;20.70;99.90
34153;DHT22;20426;48.372;10.888;2023-08-12T00:05:52;20.70;99.90
34153;DHT22;20426;48.372;10.888;2023-08-12T00:06:23;20.70;99.90
34153;DHT22;20426;48.372;10.888;2023-08-12T00:06:53;20.70;99.90
34153;DHT22;20426;48.372;10.888;2023-08-12T00:07:24;20.80;99.90
34153;DHT22;20426;48.372;10.888;2023-08-12T00:07:54;20.70;99.90
34153;DHT22;20426;48.372;10.888;2023-08-12T00:08:25;20.80;99.90
34153;DHT22;20426;48.372;10.888;2023-08-12T00:08:56;20.80;99.90
34153;DHT22;20426;48.372;10.888;2023-08-12T00:09:27;20.80;99.90
34153;DHT22;20426;48.372;10.888;2023-08-12T00:09:58;20.80;99.90
34153;DHT22;20426;48.372;10.888;2023-08-12T00:10:29;20.80;99.90
34153;DHT22;20426;48.372;10.888;2023-08-12T00:11:00;20.80;99.90
34153;DHT22;20426;48.372;10.888;2023-08-12T00:11:30;20.70;99.90
34153;DHT22;20426;48.372;10.888;2023-08-12T00:12:01;20.80;99.90
34153;DHT22;20426;48.372;10.888;2023-08-12T00:12:32;20.70;99.90
34153;DHT22;20426;48.372;10.888;2023-08-12T00:13:03;20.70;99.90
34153;DHT22;20426;48.372;10.888;2023-08-12T00:13:34;20.70;99.90
34153;DHT22;20426;48.372;10.888;2023-08-12T00:14:04;20.70;99.90
34153;DHT22;20426;48.372;10.888;2023-08-12T00:14:35;20.70;99.90
34153;DHT22;20426;48.372;10.888;2023-08-12T00:15:06;20.70;99.90
34153;DHT22;20426;48.372;10.888;2023-08-12T00:15:38;20.70;99.90
34153;DHT22;20426;48.372;10.888;2023-08-12T00:16:11;20.70;99.90
34153;DHT22;20426;48.372;10.888;2023-08-12T00:16:41;20.80;99.90
34153;DHT22;20426;48.372;10.888;2023-08-12T00:17:12;20.70;99.90
34153;DHT22;20426;48.372;10.888;2023-08-12T00:17:43;20.70;99.90
34153;DHT22;20426;48.372;10.888;2023-08-12T00:18:14;20.70;99.90
34153;DHT22;20426;48.372;10.888;2023-08-12T00:18:45;20.70;99.90
34153;DHT22;20426;48.372;10.888;2023-08-12T00:19:16;20.70;99.90
34153;DHT22;20426;48.372;10.888;2023-08-12T00:19:47;20.70;99.90
34153;DHT22;20426;48.372;10.888;2023-08-12T00:20:17;20.70;99.90
34153;DHT22;20426;48.372;10.888;2023-08-12T00:20:48;20.70;99.90
34153;DHT22;20426;48.372;10.888;2023-08-12T00:21:19;20.70;99.90
34153;DHT22;20426;48.372;10.888;2023-08-12T00:21:50;20.70;99.90
34153;DHT22;20426;48.372;10.888;2023-08-12T00:22:23;20.70;99.90
34153;DHT22;20426;48.372;10.888;2023-08-12T00:22:53;20.70;99.90
34153;DHT22;20426;48.372;10.888;2023-08-12T00:23:24;20.70;99.90
34153;DHT22;20426;48.372;10.888;2023-08-12T00:23:55;20.70;99.90
34153;DHT22;20426;48.372;10.888;2023-08-12T00:24:25;20.70;99.90
34153;DHT22;20426;48.372;10.888;2023-08-12T00:24:56;20.70;99.90
34153;DHT22;20426;48.372;10.888;2023-08-12T00:25:27;20.70;99.90
34153;DHT22;20426;48.372;10.888;2023-08-12T00:25:58;20.70;99.90
34153;DHT22;20426;48.372;10.888;2023-08-12T00:26:29;20.70;99.90
34153;DHT22;20426;48.372;10.888;2023-08-12T00:26:59;20.70;99.90
34153;DHT22;20426;48.372;10.888;2023-08-12T00:27:30;20.70;99.90
34153;DHT22;20426;48.372;10.888;2023-08-12T00:28:01;20.70;99.90
34153;DHT22;20426;48.372;10.888;2023-08-12T00:28:32;20.70;99.90
34153;DHT22;20426;48.372;10.888;2023-08-12T00:29:03;20.70;99.90
34153;DHT22;20426;48.372;10.888;2023-08-12T00:29:35;20.70;99.90
34153;DHT22;20426;48.372;10.888;2023-08-12T00:30:06;20.70;99.90
34153;DHT22;20426;48.372;10.888;2023-08-12T00:30:36;20.60;99.90
34153;DHT22;20426;48.372;10.888;2023-08-12T00:31:07;20.60;99.90
34153;DHT22;20426;48.372;10.888;2023-08-12T00:31:38;20.60;99.90
34153;DHT22;20426;48.372;10.888;2023-08-12T00:32:09;20.60;99.90
34153;DHT22;20426;48.372;10.888;2023-08-12T00:32:40;20.60;99.90
34153;DHT22;20426;48.372;10.888;2023-08-12T00:33:11;20.60;99.90
34153;DHT22;20426;48.372;10.888;2023-08-12T00:33:41;20.60;99.90
34153;DHT22;20426;48.372;10.888;2023-08-12T00:34:12;20.60;99.90
34153;DHT22;20426;48.372;10.888;2023-08-12T00:34:43;20.50;99.90
34153;DHT22;20426;48.372;10.888;2023-08-12T00:35:14;20.50;99.90
34153;DHT22;20426;48.372;10.888;2023-08-12T00:35:44;20.50;99.90
34153;DHT22;20426;48.372;10.888;2023-08-12T00:36:15;20.50;99.90
34153;DHT22;20426;48.372;10.888;2023-08-12T00:36:46;20.50;99.90
34153;DHT22;20426;48.372;10.888;2023-08-12T00:37:16;20.50;99.90
34153;DHT22;20426;48.372;10.888;2023-08-12T00:37:47;20.50;99.90
34153;DHT22;20426;48.372;10.888;2023-08-12T00:38:18;20.50;99.90
34153;DHT22;20426;48.372;10.888;2023-08-12T00:38:48;20.50;99.90
34153;DHT22;20426;48.372;10.888;2023-08-12T00:39:20;20.40;99.90
34153;DHT22;20426;48.372;10.888;2023-08-12T00:39:50;20.50;99.90
34153;DHT22;20426;48.372;10.888;2023-08-12T00:40:21;20.40;99.90
34153;DHT22;20426;48.372;10.888;2023-08-12T00:40:52;20.40;99.90
34153;DHT22;20426;48.372;10.888;2023-08-12T00:41:22;20.40;99.90
34153;DHT22;20426;48.372;10.888;2023-08-12T00:41:53;20.40;99.90
34153;DHT22;20426;48.372;10.888;2023-08-12T00:42:24;20.40;99.90
34153;DHT22;20426;48.372;10.888;2023-08-12T00:42:55;20.40;99.90
34153;DHT22;20426;48.372;10.888;2023-08-12T00:43:25;20.40;99.90
34153;DHT22;20426;48.372;10.888;2023-08-12T00:43:56;20.40;99.90
34153;DHT22;20426;48.372;10.888;2023-08-12T00:44:27;20.40;99.90
34153;DHT22;20426;48.372;10.888;2023-08-12T00:44:58;20.40;99.90
34153;DHT22;20426;48.372;10.888;2023-08-12T00:45:29;20.40;99.90
34153;DHT22;20426;48.372;10.888;2023-08-12T00:46:00;20.40;99.90
34153;DHT22;20426;48.372;10.888;2023-08-12T00:46:31;20.40;99.90
34153;DHT22;20426;48.372;10.888;2023-08-12T00:47:02;20.40;99.90
34153;DHT22;20426;48.372;10.888;2023-08-12T00:47:33;20.30;99.90
34153;DHT22;20426;48.372;10.888;2023-08-12T00:48:04;20.40;99.90
34153;DHT22;20426;48.372;10.888;2023-08-12T00:48:35;20.40;99.90
34153;DHT22;20426;48.372;10.888;2023-08-12T00:49:06;20.40;99.90
34153;DHT22;20426;48.372;10.888;2023-08-12T00:49:36;20.40;99.90
34153;DHT22;20426;48.372;10.888;2023-08-12T00:50:12;20.40;99.90
34153;DHT22;20426;48.372;10.888;2023-08-12T00:50:45;20.40;99.90
34153;DHT22;20426;48.372;10.888;2023-08-12T00:51:16;20.40;99.90
34153;DHT22;20426;48.372;10.888;2023-08-12T00:51:49;20.40;99.90
34153;DHT22;20426;48.372;10.888;2023-08-12T00:52:20;20.40;99.90
34153;DHT22;20426;48.372;10.888;2023-08-12T00:52:50;20.40;99.90
34153;DHT22;20426;48.372;10.888;2023-08-12T00:53:21;20.40;99.90
34153;DHT22;20426;48.372;10.888;2023-08-12T00:53:52;20.40;99.90
34153;DHT22;20426;48.372;10.888;2023-08-12T00:54:26;20.40;99.90
34153;DHT22;20426;48.372;10.888;2023-08-12T00:54:57;20.40;99.90
34153;DHT22;20426;48.372;10.888;2023-08-12T00:55:28;20.40;99.90
34153;DHT22;20426;48.372;10.888;2023-08-12T00:55:58;20.40;99.90
34153;DHT22;20426;48.372;10.888;2023-08-12T00:56:30;20.40;99.90
34153;DHT22;20426;48.372;10.888;2023-08-12T00:57:01;20.40;99.90
34153;DHT22;20426;48.372;10.888;2023-08-12T00:57:32;20.40;99.90
34153;DHT22;20426;48.372;10.888;2023-08-12T00:58:03;20.40;99.90
34153;DHT22;20426;48.372;10.888;2023-08-12T00:58:35;20.30;99.90
34153;DHT22;20426;48.372;10.888;2023-08-12T00:59:07;20.40;99.90
34153;DHT22;20426;48.372;10.888;2023-08-12T00:59:39;20.30;99.90
34153;DHT22;20426;48.372;10.888;2023-08-12T01:00:12;20.30;99.90
34153;DHT22;20426;48.372;10.888;2023-08-12T01:00:43;20.30;99.90
34153;DHT22;20426;48.372;10.888;2023-08-12T01:01:14;20.30;99.90
34153;DHT22;20426;48.372;10.888;2023-08-12T01:01:46;20.30;99.90
34153;DHT22;20426;48.372;10.888;2023-08-12T01:02:17;20.30;99.90
34153;DHT22;20426;48.372;10.888;2023-08-12T01:02:48;20.30;99.90
34153;DHT22;20426;48.372;10.888;2023-08-12T01:03:19;20.30;99.90
34153;DHT22;20426;48.372;10.888;2023-08-12T01:03:50;20.30;99.90
34153;DHT22;20426;48.372;10.888;2023-08-12T01:04:22;20.30;99.90
34153;DHT22;20426;48.372;10.888;2023-08-12T01:04:52;20.20;99.90
34153;DHT22;20426;48.372;10.888;2023-08-12T01:05:23;20.20;99.90
34153;DHT22;20426;48.372;10.888;2023-08-12T01:05:55;20.20;99.90
34153;DHT22;20426;48.372;10.888;2023-08-12T01:06:26;20.20;99.90
34153;DHT22;20426;48.372;10.888;2023-08-12T01:06:57;20.20;99.90
34153;DHT22;20426;48.372;10.888;2023-08-12T01:07:27;20.20;99.90
34153;DHT22;20426;48.372;10.888;2023-08-12T01:07:58;20.20;99.90
34153;DHT22;20426;48.372;10.888;2023-08-12T01:08:31;20.20;99.90
34153;DHT22;20426;48.372;10.888;2023-08-12T01:09:02;20.20;99.90
34153;DHT22;20426;48.372;10.888;2023-08-12T01:09:35;20.20;99.90
34153;DHT22;20426;48.372;10.888;2023-08-12T01:10:06;20.20;99.90
34153;DHT22;20426;48.372;10.888;2023-08-12T01:10:44;20.20;99.90
34153;DHT22;20426;48.372;10.888;2023-08-12T01:11:28;20.20;99.90
34153;DHT22;20426;48.372;10.888;2023-08-12T01:12:09;20.20;99.90
34153;DHT22;20426;48.372;10.888;2023-08-12T01:13:43;20.20;99.90
34153;DHT22;20426;48.372;10.888;2023-08-12T01:15:13;20.10;99.90
34153;DHT22;20426;48.372;10.888;2023-08-12T01:15:46;20.10;99.90
34153;DHT22;20426;48.372;10.888;2023-08-12T01:16:21;20.10;99.90
34153;DHT22;20426;48.372;10.888;2023-08-12T01:16:58;20.10;99.90
34153;DHT22;20426;48.372;10.888;2023-08-12T01:17:31;20.10;99.90
34153;DHT22;20426;48.372;10.888;2023-08-12T01:18:05;20.10;99.90
34153;DHT22;20426;48.372;10.888;2023-08-12T01:18:38;20.10;99.90
34153;DHT22;20426;48.372;10.888;2023-08-12T01:19:12;20.10;99.90
34153;DHT22;20426;48.372;10.888;2023-08-12T01:19:50;20.10;99.90
34153;DHT22;20426;48.372;10.888;2023-08-12T01:20:22;20.10;99.90
34153;DHT22;20426;48.372;10.888;2023-08-12T01:20:55;20.10;99.90
34153;DHT22;20426;48.372;10.888;2023-08-12T01:21:28;20.10;99.90
34153;DHT22;20426;48.372;10.888;2023-08-12T01:22:01;20.10;99.90
34153;DHT22;20426;48.372;10.888;2023-08-12T01:22:34;20.10;99.90
34153;DHT22;20426;48.372;10.888;2023-08-12T01:23:13;20.10;99.90
34153;DHT22;20426;48.372;10.888;2023-08-12T01:23:44;20.10;99.90
34153;DHT22;20426;48.372;10.888;2023-08-12T01:24:15;20.10;99.90
34153;DHT22;20426;48.372;10.888;2023-08-12T01:24:46;20.10;99.90
34153;DHT22;20426;48.372;10.888;2023-08-12T01:25:17;20.10;99.90
34153;DHT22;20426;48.372;10.888;2023-08-12T01:25:47;20.10;99.90
34153;DHT22;20426;48.372;10.888;2023-08-12T01:26:18;20.00;99.90
34153;DHT22;20426;48.372;10.888;2023-08-12T01:26:49;20.00;99.90
34153;DHT22;20426;48.372;10.888;2023-08-12T01:27:19;20.00;99.90
34153;DHT22;20426;48.372;10.888;2023-08-12T01:27:50;20.00;99.90
34153;DHT22;20426;48.372;10.888;2023-08-12T01:28:21;20.00;99.90
34153;DHT22;20426;48.372;10.888;2023-08-12T01:28:52;20.00;99.90
34153;DHT22;20426;48.372;10.888;2023-08-12T01:29:23;20.00;99.90
34153;DHT22;20426;48.372;10.888;2023-08-12T01:29:54;20.00;99.90
34153;DHT22;20426;48.372;10.888;2023-08-12T01:30:25;20.00;99.90
34153;DHT22;20426;48.372;10.888;2023-08-12T01:31:02;20.00;99.90
34153;DHT22;20426;48.372;10.888;2023-08-12T01:31:45;20.00;99.90
34153;DHT22;20426;48.372;10.888;2023-08-12T01:33:12;20.00;99.90
34153;DHT22;20426;48.372;10.888;2023-08-12T01:35:06;19.90;99.90
34153;DHT22;20426;48.372;10.888;2023-08-12T01:35:43;19.90;99.90
34153;DHT22;20426;48.372;10.888;2023-08-12T01:36:19;19.90;99.90
34153;DHT22;20426;48.372;10.888;2023-08-12T01:36:56;19.90;99.90
34153;DHT22;20426;48.372;10.888;2023-08-12T01:37:29;19.90;99.90
34153;DHT22;20426;48.372;10.888;2023-08-12T01:38:01;19.90;99.90
34153;DHT22;20426;48.372;10.888;2023-08-12T01:38:34;19.90;99.90
34153;DHT22;20426;48.372;10.888;2023-08-12T01:39:06;19.90;99.90
34153;DHT22;20426;48.372;10.888;2023-08-12T01:39:40;19.90;99.90
34153;DHT22;20426;48.372;10.888;2023-08-12T01:40:12;19.90;99.90
34153;DHT22;20426;48.372;10.888;2023-08-12T01:40:45;19.90;99.90
34153;DHT22;20426;48.372;10.888;2023-08-12T01:41:18;19.90;99.90
34153;DHT22;20426;48.372;10.888;2023-08-12T01:41:51;19.90;99.90
34153;DHT22;20426;48.372;10.888;2023-08-12T01:42:23;19.90;99.90
34153;DHT22;20426;48.372;10.888;2023-08-12T01:42:54;19.90;99.90
34153;DHT22;20426;48.372;10.888;2023-08-12T01:43:25;19.80;99.90
34153;DHT22;20426;48.372;10.888;2023-08-12T01:43:56;19.90;99.90
34153;DHT22;20426;48.372;10.888;2023-08-12T01:44:28;19.80;99.90
34153;DHT22;20426;48.372;10.888;2023-08-12T01:44:58;19.80;99.90
34153;DHT22;20426;48.372;10.888;2023-08-12T01:45:31;19.90;99.90
34153;DHT22;20426;48.372;10.888;2023-08-12T01:46:05;19.80;99.90
34153;DHT22;20426;48.372;10.888;2023-08-12T01:46:36;19.80;99.90
34153;DHT22;20426;48.372;10.888;2023-08-12T01:47:08;19.80;99.90
34153;DHT22;20426;48.372;10.888;2023-08-12T01:47:43;19.80;99.90
34153;DHT22;20426;48.372;10.888;2023-08-12T01:48:14;19.80;99.90
34153;DHT22;20426;48.372;10.888;2023-08-12T01:48:44;19.80;99.90
34153;DHT22;20426;48.372;10.888;2023-08-12T01:49:15;19.80;99.90
34153;DHT22;20426;48.372;10.888;2023-08-12T01:49:46;19.80;99.90
34153;DHT22;20426;48.372;10.888;2023-08-12T01:50:17;19.80;99.90
34153;DHT22;20426;48.372;10.888;2023-08-12T01:50:49;19.80;99.90
34153;DHT22;20426;48.372;10.888;2023-08-12T01:51:20;19.80;99.90
34153;DHT22;20426;48.372;10.888;2023-08-12T01:51:50;19.80;99.90
34153;DHT22;20426;48.372;10.888;2023-08-12T01:52:21;19.80;99.90
34153;DHT22;20426;48.372;10.888;2023-08-12T01:52:52;19.80;99.90
34153;DHT22;20426;48.372;10.888;2023-08-12T01:53:23;19.80;99.90
34153;DHT22;20426;48.372;10.888;2023-08-12T01:53:53;19.80;99.90
34153;DHT22;20426;48.372;10.888;2023-08-12T01:54:24;19.80;99.90
34153;DHT22;20426;48.372;10.888;2023-08-12T01:54:55;19.80;99.90
34153;DHT22;20426;48.372;10.888;2023-08-12T01:55:26;19.70;99.90
34153;DHT22;20426;48.372;10.888;2023-08-12T01:55:57;19.80;99.90
34153;DHT22;20426;48.372;10.888;2023-08-12T01:56:27;19.70;99.90
34153;DHT22;20426;48.372;10.888;2023-08-12T01:57:01;19.70;99.90
34153;DHT22;20426;48.372;10.888;2023-08-12T01:57:32;19.70;99.90
34153;DHT22;20426;48.372;10.888;2023-08-12T01:58:03;19.70;99.90
34153;DHT22;20426;48.372;10.888;2023-08-12T01:58:34;19.70;99.90
34153;DHT22;20426;48.372;10.888;2023-08-12T01:59:04;19.70;99.90
34153;DHT22;20426;48.372;10.888;2023-08-12T01:59:35;19.70;99.90
34153;DHT22;20426;48.372;10.888;2023-08-12T02:00:06;19.70;99.90
34153;DHT22;20426;48.372;10.888;2023-08-12T02:00:38;19.70;99.90
34153;DHT22;20426;48.372;10.888;2023-08-12T02:01:08;19.70;99.90
34153;DHT22;20426;48.372;10.888;2023-08-12T02:01:39;19.70;99.90
34153;DHT22;20426;48.372;10.888;2023-08-12T02:02:10;19.70;99.90
34153;DHT22;20426;48.372;10.888;2023-08-12T02:02:41;19.70;99.90
34153;DHT22;20426;48.372;10.888;2023-08-12T02:03:12;19.70;99.90
34153;DHT22;20426;48.372;10.888;2023-08-12T02:03:43;19.70;99.90
34153;DHT22;20426;48.372;10.888;2023-08-12T02:04:13;19.70;99.90
34153;DHT22;20426;48.372;10.888;2023-08-12T02:04:44;19.70;99.90
34153;DHT22;20426;48.372;10.888;2023-08-12T02:05:15;19.70;99.90
34153;DHT22;20426;48.372;10.888;2023-08-12T02:05:46;19.70;99.90
34153;DHT22;20426;48.372;10.888;2023-08-12T02:06:16;19.70;99.90
34153;DHT22;20426;48.372;10.888;2023-08-12T02:06:47;19.70;99.90
34153;DHT22;20426;48.372;10.888;2023-08-12T02:07:18;19.70;99.90
34153;DHT22;20426;48.372;10.888;2023-08-12T02:07:49;19.70;99.90
34153;DHT22;20426;48.372;10.888;2023-08-12T02:08:19;19.70;99.90
34153;DHT22;20426;48.372;10.888;2023-08-12T02:08:50;19.70;99.90
34153;DHT22;20426;48.372;10.888;2023-08-12T02:09:21;19.70;99.90
34153;DHT22;20426;48.372;10.888;2023-08-12T02:09:53;19.70;99.90
34153;DHT22;20426;48.372;10.888;2023-08-12T02:10:23;19.70;99.90
34153;DHT22;20426;48.372;10.888;2023-08-12T02:10:54;19.70;99.90
34153;DHT22;20426;48.372;10.888;2023-08-12T02:11:25;19.70;99.90
34153;DHT22;20426;48.372;10.888;2023-08-12T02:11:56;19.70;99.90
34153;DHT22;20426;48.372;10.888;2023-08-12T02:12:26;19.70;99.90
34153;DHT22;20426;48.372;10.888;2023-08-12T02:12:57;19.70;99.90
34153;DHT22;20426;48.372;10.888;2023-08-12T02:13:28;19.70;99.90
34153;DHT22;20426;48.372;10.888;2023-08-12T02:13:58;19.70;99.90
34153;DHT22;20426;48.372;10.888;2023-08-12T02:14:29;19.70;99.90
34153;DHT22;20426;48.372;10.888;2023-08-12T02:15:00;19.70;99.90
34153;DHT22;20426;48.372;10.888;2023-08-12T02:15:30;19.70;99.90
34153;DHT22;20426;48.372;10.888;2023-08-12T02:16:01;19.70;99.90
34153;DHT22;20426;48.372;10.888;2023-08-12T02:16:32;19.70;99.90
34153;DHT22;20426;48.372;10.888;2023-08-12T02:17:03;19.70;99.90
34153;DHT22;20426;48.372;10.888;2023-08-12T02:17:36;19.70;99.90
34153;DHT22;20426;48.372;10.888;2023-08-12T02:18:07;19.70;99.90
34153;DHT22;20426;48.372;10.888;2023-08-12T02:18:38;19.70;99.90
34153;DHT22;20426;48.372;10.888;2023-08-12T02:19:08;19.70;99.90
34153;DHT22;20426;48.372;10.888;2023-08-12T02:19:39;19.70;99.90
34153;DHT22;20426;48.372;10.888;2023-08-12T02:20:10;19.70;99.90
34153;DHT22;20426;48.372;10.888;2023-08-12T02:20:41;19.70;99.90
34153;DHT22;20426;48.372;10.888;2023-08-12T02:21:12;19.70;99.90
34153;DHT22;20426;48.372;10.888;2023-08-12T02:21:43;19.70;99.90
34153;DHT22;20426;48.372;10.888;2023-08-12T02:22:14;19.70;99.90
34153;DHT22;20426;48.372;10.888;2023-08-12T02:22:44;19.70;99.90
34153;DHT22;20426;48.372;10.888;2023-08-12T02:23:15;19.60;99.90
34153;DHT22;20426;48.372;10.888;2023-08-12T02:23:46;19.60;99.90
34153;DHT22;20426;48.372;10.888;2023-08-12T02:24:16;19.60;99.90
34153;DHT22;20426;48.372;10.888;2023-08-12T02:24:47;19.60;99.90
34153;DHT22;20426;48.372;10.888;2023-08-12T02:25:18;19.60;99.90
34153;DHT22;20426;48.372;10.888;2023-08-12T02:25:48;19.60;99.90
34153;DHT22;20426;48.372;10.888;2023-08-12T02:26:20;19.60;99.90
34153;DHT22;20426;48.372;10.888;2023-08-12T02:26:51;19.60;99.90
34153;DHT22;20426;48.372;10.888;2023-08-12T02:27:21;19.50;99.90
34153;DHT22;20426;48.372;10.888;2023-08-12T02:27:52;19.60;99.90
34153;DHT22;20426;48.372;10.888;2023-08-12T02:28:23;19.60;99.90
34153;DHT22;20426;48.372;10.888;2023-08-12T02:28:53;19.60;99.90
34153;DHT22;20426;48.372;10.888;2023-08-12T02:29:24;19.60;99.90
34153;DHT22;20426;48.372;10.888;2023-08-12T02:29:55;19.60;99.90
34153;DHT22;20426;48.372;10.888;2023-08-12T02:30:26;19.60;99.90
34153;DHT22;20426;48.372;10.888;2023-08-12T02:30:57;19.60;99.90
34153;DHT22;20426;48.372;10.888;2023-08-12T02:31:28;19.60;99.90
34153;DHT22;20426;48.372;10.888;2023-08-12T02:31:58;19.60;99.90
34153;DHT22;20426;48.372;10.888;2023-08-12T02:32:29;19.60;99.90
34153;DHT22;20426;48.372;10.888;2023-08-12T02:33:00;19.50;99.90
34153;DHT22;20426;48.372;10.888;2023-08-12T02:33:30;19.50;99.90
34153;DHT22;20426;48.372;10.888;2023-08-12T02:34:01;19.50;99.90
34153;DHT22;20426;48.372;10.888;2023-08-12T02:34:32;19.50;99.90
34153;DHT22;20426;48.372;10.888;2023-08-12T02:35:02;19.50;99.90
34153;DHT22;20426;48.372;10.888;2023-08-12T02:35:33;19.50;99.90
34153;DHT22;20426;48.372;10.888;2023-08-12T02:36:04;19.50;99.90
34153;DHT22;20426;48.372;10.888;2023-08-12T02:36:35;19.50;99.90
34153;DHT22;20426;48.372;10.888;2023-08-12T02:37:06;19.50;99.90
34153;DHT22;20426;48.372;10.888;2023-08-12T02:37:36;19.50;99.90
34153;DHT22;20426;48.372;10.888;2023-08-12T02:38:07;19.50;99.90
34153;DHT22;20426;48.372;10.888;2023-08-12T02:38:38;19.50;99.90
34153;DHT22;20426;48.372;10.888;2023-08-12T02:39:08;19.50;99.90
34153;DHT22;20426;48.372;10.888;2023-08-12T02:39:39;19.50;99.90
34153;DHT22;20426;48.372;10.888;2023-08-12T02:40:10;19.50;99.90
34153;DHT22;20426;48.372;10.888;2023-08-12T02:40:41;19.40;99.90
34153;DHT22;20426;48.372;10.888;2023-08-12T02:41:12;19.40;99.90
34153;DHT22;20426;48.372;10.888;2023-08-12T02:41:42;19.40;99.90
34153;DHT22;20426;48.372;10.888;2023-08-12T02:42:13;19.40;99.90
34153;DHT22;20426;48.372;10.888;2023-08-12T02:42:44;19.40;99.90
34153;DHT22;20426;48.372;10.888;2023-08-12T02:43:14;19.40;99.90
34153;DHT22;20426;48.372;10.888;2023-08-12T02:43:45;19.30;99.90
34153;DHT22;20426;48.372;10.888;2023-08-12T02:44:16;19.30;99.90
34153;DHT22;20426;48.372;10.888;2023-08-12T02:44:47;19.30;99.90
34153;DHT22;20426;48.372;10.888;2023-08-12T02:45:18;19.30;99.90
34153;DHT22;20426;48.372;10.888;2023-08-12T02:45:48;19.30;99.90
34153;DHT22;20426;48.372;10.888;2023-08-12T02:46:19;19.30;99.90
34153;DHT22;20426;48.372;10.888;2023-08-12T02:46:50;19.30;99.90
34153;DHT22;20426;48.372;10.888;2023-08-12T02:47:20;19.30;99.90
34153;DHT22;20426;48.372;10.888;2023-08-12T02:47:51;19.30;99.90
34153;DHT22;20426;48.372;10.888;2023-08-12T02:48:22;19.30;99.90
34153;DHT22;20426;48.372;10.888;2023-08-12T02:48:52;19.30;99.90
34153;DHT22;20426;48.372;10.888;2023-08-12T02:49:23;19.30;99.90
34153;DHT22;20426;48.372;10.888;2023-08-12T02:49:54;19.30;99.90
34153;DHT22;20426;48.372;10.888;2023-08-12T02:50:24;19.20;99.90
34153;DHT22;20426;48.372;10.888;2023-08-12T02:50:55;19.20;99.90
34153;DHT22;20426;48.372;10.888;2023-08-12T02:51:26;19.20;99.90
34153;DHT22;20426;48.372;10.888;2023-08-12T02:51:56;19.20;99.90
34153;DHT22;20426;48.372;10.888;2023-08-12T02:52:27;19.20;99.90
34153;DHT22;20426;48.372;10.888;2023-08-12T02:52:58;19.20;99.90
34153;DHT22;20426;48.372;10.888;2023-08-12T02:53:28;19.20;99.90
34153;DHT22;20426;48.372;10.888;2023-08-12T02:53:59;19.20;99.90
34153;DHT22;20426;48.372;10.888;2023-08-12T02:54:30;19.20;99.90
34153;DHT22;20426;48.372;10.888;2023-08-12T02:55:00;19.20;99.90
34153;DHT22;20426;48.372;10.888;2023-08-12T02:55:31;19.20;99.90
34153;DHT22;20426;48.372;10.888;2023-08-12T02:56:05;19.20;99.90
34153;DHT22;20426;48.372;10.888;2023-08-12T02:56:35;19.20;99.90
34153;DHT22;20426;48.372;10.888;2023-08-12T02:57:06;19.20;99.90
34153;DHT22;20426;48.372;10.888;2023-08-12T02:57:37;19.20;99.90
34153;DHT22;20426;48.372;10.888;2023-08-12T02:58:08;19.20;99.90
34153;DHT22;20426;48.372;10.888;2023-08-12T02:58:38;19.20;99.90
34153;DHT22;20426;48.372;10.888;2023-08-12T02:59:09;19.20;99.90
34153;DHT22;20426;48.372;10.888;2023-08-12T02:59:40;19.20;99.90
34153;DHT22;20426;48.372;10.888;2023-08-12T03:00:11;19.20;99.90
34153;DHT22;20426;48.372;10.888;2023-08-12T03:00:42;19.20;99.90
34153;DHT22;20426;48.372;10.888;2023-08-12T03:01:14;19.20;99.90
34153;DHT22;20426;48.372;10.888;2023-08-12T03:01:45;19.20;99.90
34153;DHT22;20426;48.372;10.888;2023-08-12T03:02:15;19.20;99.90
34153;DHT22;20426;48.372;10.888;2023-08-12T03:02:46;19.20;99.90
34153;DHT22;20426;48.372;10.888;2023-08-12T03:03:17;19.20;99.90
34153;DHT22;20426;48.372;10.888;2023-08-12T03:03:48;19.20;99.90
34153;DHT22;20426;48.372;10.888;2023-08-12T03:04:19;19.20;99.90
34153;DHT22;20426;48.372;10.888;2023-08-12T03:04:50;19.20;99.90
34153;DHT22;20426;48.372;10.888;2023-08-12T03:05:21;19.20;99.90
34153;DHT22;20426;48.372;10.888;2023-08-12T03:05:52;19.20;99.90
34153;DHT22;20426;48.372;10.888;2023-08-12T03:06:23;19.20;99.90
34153;DHT22;20426;48.372;10.888;2023-08-12T03:06:54;19.20;99.90
34153;DHT22;20426;48.372;10.888;2023-08-12T03:07:24;19.20;99.90
34153;DHT22;20426;48.372;10.888;2023-08-12T03:07:55;19.20;99.90
34153;DHT22;20426;48.372;10.888;2023-08-12T03:08:26;19.20;99.90
34153;DHT22;20426;48.372;10.888;2023-08-12T03:08:56;19.20;99.90
34153;DHT22;20426;48.372;10.888;2023-08-12T03:09:27;19.20;99.90
34153;DHT22;20426;48.372;10.888;2023-08-12T03:09:58;19.20;99.90
34153;DHT22;20426;48.372;10.888;2023-08-12T03:10:30;19.20;99.90
34153;DHT22;20426;48.372;10.888;2023-08-12T03:11:02;19.20;99.90
34153;DHT22;20426;48.372;10.888;2023-08-12T03:11:33;19.20;99.90
34153;DHT22;20426;48.372;10.888;2023-08-12T03:12:03;19.10;99.90
34153;DHT22;20426;48.372;10.888;2023-08-12T03:12:35;19.20;99.90
34153;DHT22;20426;48.372;10.888;2023-08-12T03:13:06;19.20;99.90
34153;DHT22;20426;48.372;10.888;2023-08-12T03:13:36;19.20;99.90
34153;DHT22;20426;48.372;10.888;2023-08-12T03:14:07;19.10;99.90
34153;DHT22;20426;48.372;10.888;2023-08-12T03:14:38;19.10;99.90
34153;DHT22;20426;48.372;10.888;2023-08-12T03:15:09;19.10;99.90
34153;DHT22;20426;48.372;10.888;2023-08-12T03:15:40;19.10;99.90
34153;DHT22;20426;48.372;10.888;2023-08-12T03:16:13;19.10;99.90
34153;DHT22;20426;48.372;10.888;2023-08-12T03:16:44;19.10;99.90
34153;DHT22;20426;48.372;10.888;2023-08-12T03:17:15;19.10;99.90
34153;DHT22;20426;48.372;10.888;2023-08-12T03:17:45;19.10;99.90
34153;DHT22;20426;48.372;10.888;2023-08-12T03:18:16;19.10;99.90
34153;DHT22;20426;48.372;10.888;2023-08-12T03:18:47;19.10;99.90